Terminal Aerodrome Forecast
Issued by NWS Boise, ID

Home | Current Version | Previous Version | Text Only | Print | Product List | Glossary On
Versions: 1 2 3 4 5 6 7 8 9 10 11 12 13 14 15 16 17 18 19 20 21 22 23 24 25 26 27 28 29 30 31 32 33 34
618
FTUS45 KBOI 140520
TAFBOI
TAF
KBOI 140520Z 1406/1506 14008KT P6SM FEW050 OVC080
     FM141100 VRB05KT P6SM VCSH OVC050
      TEMPO 1412/1414 6SM -RA BR BKN040
     FM141400 VRB05KT 6SM -RA BR SCT020 OVC040
     FM141900 32010KT 6SM -RA BR SCT015 OVC035
     FM150000 32006KT P6SM OVC050=

USA.gov is the U.S. government's official web portal to all federal, state and local government web resources and services.